Terminal Aerodrome Forecast
Issued by NWS

Home | Current Version | Previous Version | Text Only | Print | Product List | Glossary On
Versions: 1 2 3 4 5 6 7 8 9 10 11 12 13 14 15 16
000
FTUS42 KTBW 250500 RRA
TAFPIE
TAF
KPIE 250541Z 2506/2606 00000KT P6SM FEW025 SCT250
     FM251000 00000KT P6SM VCSH SCT025
     FM251400 18005KT P6SM VCTS SCT040CB SCT250
     FM252100 26008KT P6SM VCTS SCT040CB SCT250
     FM260100 24005KT P6SM FEW030 BKN250=

USA.gov is the U.S. government's official web portal to all federal, state and local government web resources and services.